Nutley, New Jersey
Current Conditions -  °F | °C
As of 11:51 PM on Thursday 25 Dec 2014 (Local Time) from KTEB Reporting Station
Clear Clear  
Wind Chill: 41°   Ceiling: Unl
Heat Index: 44°   Visibility: 10mi
Dew Point: 28°   Wind: 6mph
Humidity: 53%   Direction: 230°SW
Pressure: 30.11"   Gusts: NA
Location:  40.82°N, 74.16°W
Report Text: KTEB 260451Z 23005KT 10SM CLR 07/M02 A3011 RMK AO2 SLP196 T00671022 401670067 $
Loading
Personal Weather Stations






























Interactive Weather Map New forecast layout! Learn more

10-Day Weather Forecast

Advertisements
Track Severe Weather on mobile